Time;durP1;ratioP1;P1;durP2;ratioP2;P2;SDS_P1;SDS_P2;PMS_P1;PMS_P2;Temp;Humidity;BMP_temperature;BMP_pressure;BME280_temperature;BME280_humidity;BME280_pressure;Samples;Min_cycle;Max_cycle;Signal;HPM_P1;HPM_P2
2023/03/12 00:02:15;;;;;;;6.30;2.60;;;;;;;-145.69;100.00;52557.28;5116403;28;20185;-82
2023/03/12 00:04:42;;;;;;;6.07;2.60;;;;;;;-145.69;100.00;52521.63;5116835;28;20193;-82
2023/03/12 00:07:08;;;;;;;5.90;2.17;;;;;;;-145.69;100.00;52549.34;5098947;28;20571;-82
2023/03/12 00:09:37;;;;;;;7.17;2.23;;;;;;;-145.69;100.00;52571.13;5117545;28;20201;-81
2023/03/12 00:12:05;;;;;;;11.33;2.73;;;;;;;-145.69;100.00;52567.16;5116758;28;20201;-82
2023/03/12 00:14:31;;;;;;;8.67;2.60;;;;;;;-145.69;100.00;52527.56;5115520;28;20202;-82
2023/03/12 00:16:58;;;;;;;10.60;2.63;;;;;;;-145.69;100.00;52529.53;5116247;28;20202;-83
2023/03/12 00:19:25;;;;;;;8.00;2.70;;;;;;;-145.69;100.00;52543.41;5115749;28;20228;-82
2023/03/12 00:21:51;;;;;;;12.17;2.57;;;;;;;-145.69;100.00;52565.19;5096225;28;20209;-82
2023/03/12 00:24:18;;;;;;;7.97;2.40;;;;;;;-145.69;100.00;52521.63;5114047;28;20217;-82
2023/03/12 00:26:46;;;;;;;6.90;2.67;;;;;;;-145.69;100.00;52555.28;5114813;28;20193;-82
2023/03/12 00:29:12;;;;;;;11.90;2.30;;;;;;;-145.69;100.00;52537.47;5114533;28;20209;-82
2023/03/12 00:31:39;;;;;;;6.17;2.50;;;;;;;-145.69;100.00;52519.63;5114570;28;20208;-82
2023/03/12 00:34:05;;;;;;;10.43;2.80;;;;;;;-145.69;100.00;52555.28;5114832;28;20198;-82
2023/03/12 00:36:32;;;;;;;6.97;2.63;;;;;;;-145.69;100.00;52511.72;5107722;28;20661;-82
2023/03/12 00:39:00;;;;;;;10.63;2.20;;;;;;;-145.69;100.00;52547.38;5095247;28;20233;-81
2023/03/12 00:41:29;;;;;;;6.93;2.10;;;;;;;-145.69;100.00;52565.19;5095182;28;20230;-82
2023/03/12 00:43:57;;;;;;;8.30;2.57;;;;;;;-145.69;100.00;52535.47;5093598;28;20284;-83
2023/03/12 00:46:24;;;;;;;7.27;2.70;;;;;;;-145.69;100.00;52541.44;5093169;28;20206;-82
2023/03/12 00:48:51;;;;;;;4.87;2.33;;;;;;;-145.69;100.00;52527.56;5093483;28;20656;-82
2023/03/12 00:51:17;;;;;;;4.07;1.80;;;;;;;-145.69;100.00;52549.34;5092912;28;20648;-82
2023/03/12 00:53:44;;;;;;;6.43;2.40;;;;;;;-145.69;100.00;52539.44;5093188;28;20202;-82
2023/03/12 00:56:11;;;;;;;8.83;2.57;;;;;;;-145.69;100.00;52563.22;5093401;28;20202;-82
2023/03/12 00:58:37;;;;;;;7.53;2.60;;;;;;;-145.69;100.00;52541.44;5093441;28;20256;-82
2023/03/12 01:01:05;;;;;;;6.17;2.10;;;;;;;-145.69;100.00;52539.44;5093601;28;20204;-83
2023/03/12 01:03:32;;;;;;;7.40;2.57;;;;;;;-145.69;100.00;52555.28;5106991;28;20198;-82
2023/03/12 01:05:58;;;;;;;8.53;2.57;;;;;;;-145.69;100.00;52523.59;5113249;28;20197;-82
2023/03/12 01:08:25;;;;;;;6.73;2.50;;;;;;;-145.69;100.00;52555.28;5113276;28;20201;-83
2023/03/12 01:10:52;;;;;;;7.50;2.30;;;;;;;-145.69;100.00;52551.31;5113321;28;20201;-82
2023/03/12 01:13:18;;;;;;;7.13;2.67;;;;;;;-145.69;100.00;52525.59;5113303;28;20220;-82
2023/03/12 01:15:45;;;;;;;3.50;2.13;;;;;;;-145.69;100.00;52531.53;5113733;28;20193;-83
2023/03/12 01:18:13;;;;;;;6.40;2.10;;;;;;;-145.69;100.00;52569.16;5113387;28;20221;-82
2023/03/12 01:20:40;;;;;;;8.10;2.60;;;;;;;-145.69;100.00;52523.59;5113608;28;20198;-81
2023/03/12 01:23:07;;;;;;;6.33;2.53;;;;;;;-145.69;100.00;52535.47;5114604;28;20197;-82
2023/03/12 01:25:33;;;;;;;5.57;1.90;;;;;;;-145.69;100.00;52547.38;5114015;28;20205;-83
2023/03/12 01:28:00;;;;;;;5.93;2.33;;;;;;;-145.69;100.00;52559.25;5113148;28;20587;-82
2023/03/12 01:30:27;;;;;;;7.60;2.63;;;;;;;-145.69;100.00;52559.25;5113163;28;20236;-82
2023/03/12 01:32:53;;;;;;;5.90;2.50;;;;;;;-145.69;100.00;52553.31;5094808;28;20225;-82
2023/03/12 01:35:21;;;;;;;9.57;2.83;;;;;;;-145.69;100.00;52547.38;5113323;28;20200;-83
2023/03/12 01:37:48;;;;;;;6.60;2.40;;;;;;;-145.69;100.00;52535.47;5112888;28;20232;-83
2023/03/12 01:40:15;;;;;;;9.17;2.80;;;;;;;-145.69;100.00;52519.63;5112899;28;20225;-82
2023/03/12 01:42:42;;;;;;;6.50;2.47;;;;;;;-145.69;100.00;52505.78;5112891;28;20239;-83
2023/03/12 01:45:42;;;;;;;9.30;2.80;;;;;;;-145.69;100.00;52529.53;5113593;28;20675;-82
2023/03/12 01:48:08;;;;;;;8.63;2.07;;;;;;;-145.69;100.00;52559.25;5112782;28;20202;-83
2023/03/12 01:50:36;;;;;;;8.60;2.50;;;;;;;-145.69;100.00;52559.25;5112158;28;20435;-83
2023/03/12 01:53:03;;;;;;;5.53;2.00;;;;;;;-145.69;100.00;52557.28;5112882;28;20454;-82
2023/03/12 01:55:30;;;;;;;8.03;2.10;;;;;;;-145.69;100.00;52491.91;5113412;28;20212;-82
2023/03/12 01:57:58;;;;;;;4.47;2.43;;;;;;;-145.69;100.00;52527.56;5112916;28;20201;-83
2023/03/12 02:00:27;;;;;;;7.27;3.03;;;;;;;-145.69;100.00;52533.50;5112932;28;20201;-82
2023/03/12 02:02:58;;;;;;;9.70;2.80;;;;;;;-145.69;100.00;52563.22;5094712;28;20229;-83
2023/03/12 02:05:31;;;;;;;3.40;1.63;;;;;;;-145.69;100.00;52547.38;5116222;28;20208;-83
2023/03/12 02:07:59;;;;;;;6.67;2.30;;;;;;;-145.69;100.00;52539.44;5116883;28;20198;-83
2023/03/12 02:10:26;;;;;;;3.83;1.97;;;;;;;-145.69;100.00;52525.59;5116425;28;20206;-83
2023/03/12 02:12:53;;;;;;;6.87;2.60;;;;;;;-145.69;100.00;52569.16;5116571;28;20194;-83
2023/03/12 02:15:19;;;;;;;7.57;2.50;;;;;;;-145.69;100.00;52535.47;5116333;28;20204;-83
2023/03/12 02:17:46;;;;;;;7.73;2.53;;;;;;;-145.69;100.00;52537.47;5116425;28;20200;-82
2023/03/12 02:20:17;;;;;;;6.03;2.20;;;;;;;-145.69;100.00;52559.25;5116239;28;20228;-83
2023/03/12 02:22:51;;;;;;;4.27;2.03;;;;;;;-145.69;100.00;52563.22;5116711;28;20205;-83
2023/03/12 02:25:29;;;;;;;5.00;2.20;;;;;;;-145.69;100.00;52559.25;5116394;28;20197;-82
2023/03/12 02:27:58;;;;;;;6.93;2.23;;;;;;;-145.69;100.00;52537.47;5116341;28;20197;-83
2023/03/12 02:30:25;;;;;;;3.97;2.10;;;;;;;-145.69;100.00;52559.25;5097914;28;20201;-83
2023/03/12 02:32:53;;;;;;;6.47;1.80;;;;;;;-145.69;100.00;52523.59;5116012;28;20197;-83
2023/03/12 02:35:20;;;;;;;6.00;1.90;;;;;;;-145.69;100.00;52521.63;5116131;28;20209;-83
2023/03/12 02:37:48;;;;;;;4.13;2.00;;;;;;;-145.69;100.00;52535.47;5115987;28;20200;-83
2023/03/12 02:40:21;;;;;;;7.50;2.77;;;;;;;-145.69;100.00;52569.16;5116343;28;20233;-82
2023/03/12 02:42:49;;;;;;;6.27;2.57;;;;;;;-145.69;100.00;52553.31;5095228;28;20237;-82
2023/03/12 02:45:16;;;;;;;6.57;2.43;;;;;;;-145.69;100.00;52561.22;5095278;28;20649;-83
2023/03/12 02:47:42;;;;;;;4.53;2.27;;;;;;;-145.69;100.00;52547.38;5111246;28;20193;-83
2023/03/12 02:50:10;;;;;;;8.73;2.50;;;;;;;-145.69;100.00;52547.38;5115825;28;20205;-83
2023/03/12 02:52:37;;;;;;;5.10;2.13;;;;;;;-145.69;100.00;52529.53;5116018;28;20678;-83
2023/03/12 02:55:03;;;;;;;6.90;2.10;;;;;;;-145.69;100.00;52531.53;5115877;28;20292;-84
2023/03/12 02:57:30;;;;;;;6.67;2.30;;;;;;;-145.69;100.00;52551.31;5116017;28;20202;-83
2023/03/12 02:59:58;;;;;;;3.63;2.40;;;;;;;-145.69;100.00;52517.66;5116074;28;20221;-83
2023/03/12 03:02:25;;;;;;;3.30;2.03;;;;;;;-145.69;100.00;52553.31;5115791;28;20541;-83
2023/03/12 03:04:52;;;;;;;5.90;2.17;;;;;;;-145.69;100.00;52531.53;5115798;28;20208;-83
2023/03/12 03:07:18;;;;;;;3.30;2.37;;;;;;;-145.69;100.00;52551.31;5115434;28;20666;-82
2023/03/12 03:09:45;;;;;;;4.90;2.10;;;;;;;-145.69;100.00;52535.47;5115522;28;20205;-83
2023/03/12 03:12:11;;;;;;;3.97;2.53;;;;;;;-145.69;100.00;52543.41;5115605;28;20671;-83
2023/03/12 03:14:38;;;;;;;5.07;2.60;;;;;;;-145.69;100.00;52545.38;5114152;28;20790;-83
2023/03/12 03:17:06;;;;;;;7.60;2.50;;;;;;;-145.69;100.00;52543.41;5115644;28;20204;-83
2023/03/12 03:19:32;;;;;;;5.37;2.40;;;;;;;-145.69;100.00;52513.69;5115188;28;20709;-83
2023/03/12 03:21:59;;;;;;;7.33;2.30;;;;;;;-145.69;100.00;52547.38;5097559;28;20606;-83
2023/03/12 03:24:25;;;;;;;5.27;2.10;;;;;;;-145.69;100.00;52535.47;5115416;28;20210;-83
2023/03/12 03:26:52;;;;;;;2.97;2.00;;;;;;;-145.69;100.00;52551.31;5115894;28;20197;-83
2023/03/12 03:29:18;;;;;;;7.47;1.97;;;;;;;-145.69;100.00;52535.47;5115089;28;20193;-83
2023/03/12 03:31:45;;;;;;;6.07;2.30;;;;;;;-145.69;100.00;52539.44;5115284;28;20200;-83
2023/03/12 03:34:13;;;;;;;2.57;1.63;;;;;;;-145.69;100.00;52525.59;5115289;28;20201;-83
2023/03/12 03:36:39;;;;;;;3.13;1.93;;;;;;;-145.69;100.00;52559.25;5114846;28;20203;-84
2023/03/12 03:39:06;;;;;;;5.37;1.97;;;;;;;-145.69;100.00;52527.56;5114445;28;20697;-83
2023/03/12 03:41:32;;;;;;;5.73;2.13;;;;;;;-145.69;100.00;52523.59;5114762;28;20699;-84
2023/03/12 03:43:59;;;;;;;2.60;1.90;;;;;;;-145.69;100.00;52585.00;5114605;28;20598;-84
2023/03/12 03:46:26;;;;;;;4.63;1.80;;;;;;;-145.69;100.00;52583.00;5115065;28;20601;-83
2023/03/12 03:48:52;;;;;;;7.60;1.93;;;;;;;-145.69;100.00;52557.28;5114857;28;20220;-83
2023/03/12 03:51:20;;;;;;;3.37;2.10;;;;;;;-145.69;100.00;52571.13;5114196;28;20193;-84
2023/03/12 03:53:46;;;;;;;5.70;2.10;;;;;;;-145.69;100.00;52533.50;5114285;28;20208;-83
2023/03/12 03:56:15;;;;;;;5.63;2.43;;;;;;;-145.69;100.00;52567.16;5114612;28;20200;-81
2023/03/12 03:58:42;;;;;;;6.03;2.13;;;;;;;-145.69;100.00;52557.28;5114564;28;20215;-83
2023/03/12 04:01:09;;;;;;;6.70;2.30;;;;;;;-145.69;100.00;52537.47;5113923;28;20602;-83
2023/03/12 04:03:36;;;;;;;4.30;1.70;;;;;;;-145.69;100.00;52519.63;5114842;28;20201;-83
2023/03/12 04:06:04;;;;;;;3.93;2.00;;;;;;;-145.69;100.00;52549.34;5114454;28;20209;-82
2023/03/12 04:08:34;;;;;;;3.90;2.27;;;;;;;-145.69;100.00;52553.31;5115133;28;20204;-83
2023/03/12 04:11:06;;;;;;;4.50;2.10;;;;;;;-145.69;100.00;52539.44;5116777;28;20205;-83
2023/03/12 04:13:33;;;;;;;2.50;1.83;;;;;;;-145.69;100.00;52575.09;5116168;28;20194;-83
2023/03/12 04:15:59;;;;;;;2.10;1.60;;;;;;;-145.69;100.00;52551.31;5117640;28;20211;-83
2023/03/12 04:18:26;;;;;;;4.20;1.90;;;;;;;-145.69;100.00;52555.28;5119323;28;20198;-82
2023/03/12 04:20:52;;;;;;;6.83;1.80;;;;;;;-145.69;100.00;52519.63;5124550;28;20232;-82
2023/03/12 04:23:18;;;;;;;3.67;1.80;;;;;;;-145.69;100.00;52511.72;5122379;28;20208;-82
2023/03/12 04:25:46;;;;;;;3.93;2.20;;;;;;;-145.69;100.00;52543.41;5114241;28;20668;-82
2023/03/12 04:28:13;;;;;;;3.23;1.83;;;;;;;-145.69;100.00;52503.81;5113369;28;20204;-82
2023/03/12 04:30:39;;;;;;;2.93;2.07;;;;;;;-145.69;100.00;52551.31;5113297;28;20194;-83
2023/03/12 04:33:06;;;;;;;4.73;1.93;;;;;;;-145.69;100.00;52531.53;5113544;28;20198;-83
2023/03/12 04:35:33;;;;;;;3.57;2.00;;;;;;;-145.69;100.00;52513.69;5113633;28;20205;-83
2023/03/12 04:38:01;;;;;;;3.10;2.10;;;;;;;-145.69;100.00;52535.47;5113492;28;20636;-82
2023/03/12 04:40:28;;;;;;;5.23;1.87;;;;;;;-145.69;100.00;52519.63;5113410;28;20221;-83
2023/03/12 04:42:55;;;;;;;3.47;2.03;;;;;;;-145.69;100.00;52549.34;5112732;28;20438;-83
2023/03/12 04:45:22;;;;;;;5.10;1.73;;;;;;;-145.69;100.00;52551.31;5113209;28;20193;-83
2023/03/12 04:47:48;;;;;;;2.97;1.50;;;;;;;-145.69;100.00;52505.78;5115056;28;20193;-83
2023/03/12 04:50:15;;;;;;;4.00;1.63;;;;;;;-145.69;100.00;52531.53;5115938;28;20227;-83
2023/03/12 04:52:41;;;;;;;4.80;1.93;;;;;;;-145.69;100.00;52519.63;5114699;28;20208;-83
2023/03/12 04:55:09;;;;;;;3.33;1.63;;;;;;;-145.69;100.00;52499.84;5114196;28;20189;-83
2023/03/12 04:57:35;;;;;;;5.47;1.87;;;;;;;-145.69;100.00;52501.81;5114009;28;20652;-83
2023/03/12 05:00:08;;;;;;;4.13;1.93;;;;;;;-145.69;100.00;52501.81;5113356;28;20321;-82
2023/03/12 05:02:36;;;;;;;8.17;1.73;;;;;;;-145.69;100.00;52519.63;5113343;28;20209;-83
2023/03/12 05:05:03;;;;;;;2.80;1.37;;;;;;;-145.69;100.00;52529.53;5113467;28;20212;-82
2023/03/12 05:07:29;;;;;;;3.17;1.70;;;;;;;-145.69;100.00;52549.34;5114127;28;20197;-82
2023/03/12 05:09:56;;;;;;;5.00;1.60;;;;;;;-145.69;100.00;52527.56;5114198;28;20197;-82
2023/03/12 05:12:22;;;;;;;3.27;1.43;;;;;;;-145.69;100.00;52563.22;5113495;28;20197;-83
2023/03/12 05:14:49;;;;;;;4.57;1.43;;;;;;;-145.69;100.00;52573.13;5113473;28;20204;-79
2023/03/12 05:17:17;;;;;;;1.57;1.13;;;;;;;-145.69;100.00;52535.47;5113094;28;20212;-83
2023/03/12 05:19:43;;;;;;;2.23;1.30;;;;;;;-145.69;100.00;52505.78;5113217;28;20237;-83
2023/03/12 05:22:10;;;;;;;2.93;1.30;;;;;;;-145.69;100.00;52525.59;5113581;28;20197;-82
2023/03/12 05:24:36;;;;;;;5.23;1.73;;;;;;;-145.69;100.00;52499.84;5113014;28;20202;-83
2023/03/12 05:27:03;;;;;;;2.43;1.60;;;;;;;-145.69;100.00;52543.41;5113191;28;20555;-83
2023/03/12 05:29:34;;;;;;;4.03;2.00;;;;;;;-145.69;100.00;52523.59;5114657;28;20202;-82
2023/03/12 05:32:00;;;;;;;3.13;1.47;;;;;;;-145.69;100.00;52509.75;5115272;28;20201;-83
2023/03/12 05:34:29;;;;;;;2.60;1.73;;;;;;;-145.69;100.00;52527.56;5113177;28;20219;-83
2023/03/12 05:36:55;;;;;;;4.67;2.23;;;;;;;-145.69;100.00;52515.69;5113073;28;20201;-83
2023/03/12 05:39:22;;;;;;;6.13;3.37;;;;;;;-145.69;100.00;52529.53;5116778;28;20201;-83
2023/03/12 05:41:48;;;;;;;9.93;3.77;;;;;;;-145.69;100.00;52497.84;5119103;28;20230;-83
2023/03/12 05:44:16;;;;;;;7.37;3.60;;;;;;;-145.69;100.00;52531.53;5117491;28;20197;-82
2023/03/12 05:46:43;;;;;;;6.50;3.70;;;;;;;-145.69;100.00;52541.44;5117822;28;20686;-83
2023/03/12 05:49:10;;;;;;;6.10;3.30;;;;;;;-145.69;100.00;52525.59;5118726;28;20198;-83
2023/03/12 05:51:38;;;;;;;6.10;3.30;;;;;;;-145.69;100.00;52515.69;5119230;28;20197;-83
2023/03/12 05:54:04;;;;;;;8.20;3.07;;;;;;;-145.69;100.00;52515.69;5117941;28;20193;-81
2023/03/12 05:56:31;;;;;;;8.63;4.13;;;;;;;-145.69;100.00;52521.63;5120490;28;20200;-82
2023/03/12 05:58:59;;;;;;;8.97;4.47;;;;;;;-145.69;100.00;52507.75;5118589;28;20204;-83
2023/03/12 06:01:28;;;;;;;5.33;3.33;;;;;;;-145.69;100.00;52535.47;5118234;28;20232;-82
2023/03/12 06:03:54;;;;;;;13.20;5.53;;;;;;;-145.69;100.00;52472.13;5120489;28;20190;-82
2023/03/12 06:06:21;;;;;;;12.43;5.70;;;;;;;-145.69;100.00;52555.28;5121428;28;20198;-82
2023/03/12 06:08:50;;;;;;;12.53;6.27;;;;;;;-145.69;100.00;52503.81;5118400;28;20193;-82
2023/03/12 06:11:17;;;;;;;13.37;5.47;;;;;;;-145.69;100.00;52535.47;5117688;28;20198;-82
2023/03/12 06:13:44;;;;;;;10.13;5.97;;;;;;;-145.69;100.00;52511.72;5118958;28;20205;-80
2023/03/12 06:16:14;;;;;;;11.03;6.13;;;;;;;-145.69;100.00;52521.63;5120574;28;20236;-82
2023/03/12 06:18:41;;;;;;;13.23;6.57;;;;;;;-145.69;100.00;52527.56;5120252;28;20193;-82
2023/03/12 06:21:12;;;;;;;14.63;7.00;;;;;;;-145.69;100.00;52527.56;5120740;28;20709;-82
2023/03/12 06:23:39;;;;;;;17.97;8.13;;;;;;;-145.69;100.00;52531.53;5120971;28;20197;-81
2023/03/12 06:26:06;;;;;;;14.67;6.93;;;;;;;-145.69;100.00;52553.31;5120865;28;20189;-82
2023/03/12 06:28:34;;;;;;;15.10;7.63;;;;;;;-145.69;100.00;52503.81;5120314;28;20205;-82
2023/03/12 06:31:01;;;;;;;18.90;8.03;;;;;;;-145.69;100.00;52531.53;5121666;28;20201;-82
2023/03/12 06:33:30;;;;;;;15.33;7.60;;;;;;;-145.69;100.00;52505.78;5119262;28;20205;-83
2023/03/12 06:35:57;;;;;;;16.90;7.30;;;;;;;-145.69;100.00;52523.59;5119174;28;20197;-83
2023/03/12 06:38:25;;;;;;;20.03;8.67;;;;;;;-145.69;100.00;52527.56;5117475;28;20215;-83
2023/03/12 06:40:56;;;;;;;18.40;8.47;;;;;;;-145.69;100.00;52535.47;5117680;28;20220;-83
2023/03/12 06:43:25;;;;;;;19.07;8.47;;;;;;;-145.69;100.00;52579.06;5118494;28;20234;-83
2023/03/12 06:45:51;;;;;;;21.40;8.43;;;;;;;-145.69;100.00;52549.34;5123210;28;20205;-84
2023/03/12 06:48:21;;;;;;;17.60;8.47;;;;;;;-145.69;100.00;52499.84;5124196;28;20595;-84
2023/03/12 06:50:47;;;;;;;21.93;9.13;;;;;;;-145.69;100.00;52515.69;5128975;28;20204;-82
2023/03/12 06:53:14;;;;;;;20.27;9.40;;;;;;;-145.69;100.00;52509.75;5132175;28;20197;-82
2023/03/12 06:55:43;;;;;;;22.13;9.70;;;;;;;-145.69;100.00;52559.25;5125967;28;20225;-84
2023/03/12 06:58:10;;;;;;;18.90;8.93;;;;;;;-145.69;100.00;52517.66;5127177;28;20206;-83
2023/03/12 07:00:38;;;;;;;20.93;8.77;;;;;;;-145.69;100.00;52545.38;5124292;28;20237;-83
2023/03/12 07:03:05;;;;;;;15.87;7.23;;;;;;;-145.69;100.00;52539.44;5132670;28;20264;-84
2023/03/12 07:05:31;;;;;;;19.77;8.03;;;;;;;-145.69;100.00;52519.63;5125815;28;20193;-84
2023/03/12 07:08:00;;;;;;;19.20;8.43;;;;;;;-145.69;100.00;52509.75;5123304;28;20556;-83
2023/03/12 07:10:28;;;;;;;18.00;8.20;;;;;;;-145.69;100.00;52531.53;5124708;28;20197;-84
2023/03/12 07:12:57;;;;;;;16.43;6.73;;;;;;;-145.69;100.00;52551.31;5105263;28;20194;-84
2023/03/12 07:15:23;;;;;;;16.60;7.70;;;;;;;-145.69;100.00;52569.16;5120951;28;20216;-84
2023/03/12 07:17:51;;;;;;;14.20;6.73;;;;;;;-145.69;100.00;52543.41;5120939;28;20209;-84
2023/03/12 07:20:18;;;;;;;14.20;6.27;;;;;;;-145.69;100.00;52555.28;5121628;28;20221;-84
2023/03/12 07:22:45;;;;;;;14.40;6.90;;;;;;;-145.69;100.00;52513.69;5121264;28;20209;-84
2023/03/12 07:25:11;;;;;;;15.87;7.50;;;;;;;-145.69;100.00;52529.53;5121518;28;20201;-84
2023/03/12 07:27:38;;;;;;;13.30;5.70;;;;;;;-145.69;100.00;52509.75;5124969;28;20644;-84
2023/03/12 07:30:05;;;;;;;10.33;5.13;;;;;;;-145.69;100.00;52531.53;5125331;28;20207;-84
2023/03/12 07:32:33;;;;;;;8.63;4.60;;;;;;;-145.69;100.00;52535.47;5123748;28;20200;-82
2023/03/12 07:35:01;;;;;;;9.23;4.93;;;;;;;-145.69;100.00;52551.31;5123538;28;20201;-84
2023/03/12 07:37:27;;;;;;;7.07;3.37;;;;;;;-145.69;100.00;52521.63;5124579;28;20200;-84
2023/03/12 07:39:54;;;;;;;6.33;3.00;;;;;;;-145.69;100.00;52525.59;5120715;28;20189;-84
2023/03/12 07:42:21;;;;;;;7.57;4.00;;;;;;;-145.69;100.00;52539.44;5122923;28;20301;-84
2023/03/12 07:44:48;;;;;;;3.40;1.87;;;;;;;-145.69;100.00;52529.53;5124837;28;20208;-84
2023/03/12 07:47:15;;;;;;;7.37;3.83;;;;;;;-145.69;100.00;52501.81;5127576;28;20224;-84
2023/03/12 07:49:41;;;;;;;3.60;2.20;;;;;;;-145.69;100.00;52523.59;5126082;28;20260;-84
2023/03/12 07:52:10;;;;;;;3.17;1.83;;;;;;;-145.69;100.00;52493.91;5124468;27;20204;-84
2023/03/12 07:54:37;;;;;;;5.77;2.37;;;;;;;-145.69;100.00;52480.03;5119847;28;20194;-83
2023/03/12 07:57:04;;;;;;;5.00;2.40;;;;;;;-145.69;100.00;52547.38;5116830;28;20205;-81
2023/03/12 07:59:30;;;;;;;2.50;1.60;;;;;;;-145.69;100.00;52509.75;5116319;28;20200;-83
2023/03/12 08:01:57;;;;;;;3.13;1.43;;;;;;;-145.69;100.00;52519.63;5114601;28;20236;-81
2023/03/12 08:04:23;;;;;;;4.83;1.70;;;;;;;-145.69;100.00;52531.53;5115423;28;20205;-81
2023/03/12 08:06:50;;;;;;;1.80;1.40;;;;;;;-145.69;100.00;52541.44;5116931;28;20198;-82
2023/03/12 08:09:18;;;;;;;3.67;1.20;;;;;;;-145.69;100.00;52513.69;5116725;28;20201;-82
2023/03/12 08:11:44;;;;;;;1.27;0.87;;;;;;;-145.69;100.00;52511.72;5096555;28;20201;-82
2023/03/12 08:14:10;;;;;;;1.27;0.90;;;;;;;-145.69;100.00;52493.91;5096690;28;20194;-82
2023/03/12 08:16:37;;;;;;;3.23;1.10;;;;;;;-145.69;100.00;52509.75;5096978;28;20194;-82
2023/03/12 08:19:03;;;;;;;2.63;1.50;;;;;;;-145.69;100.00;52525.59;5096493;28;20206;-82
2023/03/12 08:21:30;;;;;;;1.43;1.10;;;;;;;-145.69;100.00;52489.94;5095059;28;20225;-82
2023/03/12 08:23:56;;;;;;;2.07;1.30;;;;;;;-145.69;100.00;52529.53;5104328;28;20193;-83
2023/03/12 08:26:24;;;;;;;2.43;1.27;;;;;;;-145.69;100.00;52497.84;5118125;28;20198;-85
2023/03/12 08:28:50;;;;;;;1.43;1.10;;;;;;;-145.69;100.00;52515.69;5118426;28;20655;-85
2023/03/12 08:31:17;;;;;;;1.53;0.97;;;;;;;-145.69;100.00;52472.13;5116542;28;20197;-82
2023/03/12 08:33:45;;;;;;;3.40;1.20;;;;;;;-145.69;100.00;52482.00;5117036;28;20197;-81
2023/03/12 08:36:13;;;;;;;5.17;1.40;;;;;;;-145.69;100.00;52499.84;5121825;28;20200;-80
2023/03/12 08:38:39;;;;;;;3.63;1.10;;;;;;;-145.69;100.00;52472.13;5120540;28;20197;-80
2023/03/12 08:41:06;;;;;;;4.93;1.17;;;;;;;-145.69;100.00;52484.00;5114128;28;20690;-79
2023/03/12 08:43:34;;;;;;;3.73;1.20;;;;;;;-145.69;100.00;52480.03;5116727;28;20197;-81
2023/03/12 08:46:02;;;;;;;4.40;1.67;;;;;;;-145.69;100.00;52468.16;5119854;28;20194;-81
2023/03/12 08:48:31;;;;;;;6.50;1.07;;;;;;;-145.69;100.00;52491.91;5119185;28;20194;-81
2023/03/12 08:50:58;;;;;;;2.70;1.20;;;;;;;-145.69;100.00;52485.97;5117844;28;20255;-80
2023/03/12 08:53:26;;;;;;;4.33;1.80;;;;;;;-145.69;100.00;52444.38;5118355;28;20198;-81
2023/03/12 08:55:53;;;;;;;4.77;1.23;;;;;;;-145.69;100.00;52476.06;5118849;28;20209;-81
2023/03/12 08:58:20;;;;;;;4.03;1.00;;;;;;;-145.69;100.00;52472.13;5118478;28;20201;-80
2023/03/12 09:00:48;;;;;;;3.57;0.80;;;;;;;-145.69;100.00;52503.81;5118867;28;20213;-81
2023/03/12 09:03:15;;;;;;;3.97;1.63;;;;;;;-145.69;100.00;52487.97;5119318;28;20207;-81
2023/03/12 09:05:42;;;;;;;4.67;1.30;;;;;;;-145.69;100.00;52495.88;5118413;28;20242;-81
2023/03/12 09:08:09;;;;;;;2.40;0.90;;;;;;;-145.69;100.00;52499.84;5118550;28;20544;-82
2023/03/12 09:10:36;;;;;;;7.03;1.20;;;;;;;-145.69;100.00;52480.03;5116730;28;21229;-80
2023/03/12 09:13:03;;;;;;;3.70;0.87;;;;;;;-145.69;100.00;52519.63;5119030;28;20200;-80
2023/03/12 09:15:30;;;;;;;4.83;1.10;;;;;;;-145.69;100.00;52509.75;5121917;28;20446;-80
2023/03/12 09:17:58;;;;;;;2.77;0.97;;;;;;;-145.69;100.00;52497.84;5120856;28;20201;-81
2023/03/12 09:20:25;;;;;;;7.37;1.30;;;;;;;-145.69;100.00;52482.00;5122652;28;20197;-81
2023/03/12 09:22:52;;;;;;;3.83;1.00;;;;;;;-145.69;100.00;52452.31;5121930;28;20563;-80
2023/03/12 09:25:19;;;;;;;4.57;1.90;;;;;;;-145.69;100.00;52484.00;5124105;28;20199;-80
2023/03/12 09:27:47;;;;;;;3.77;1.50;;;;;;;-145.69;100.00;52491.91;5125163;28;20724;-80
2023/03/12 09:30:16;;;;;;;3.30;1.50;;;;;;;-145.69;100.00;52476.06;5118642;28;20194;-81
2023/03/12 09:32:44;;;;;;;7.17;1.47;;;;;;;-145.69;100.00;52472.13;5119314;28;20208;-82
2023/03/12 09:35:13;;;;;;;5.40;1.60;;;;;;;-145.69;100.00;52493.91;5118167;28;20198;-81
2023/03/12 09:37:40;;;;;;;2.57;1.10;;;;;;;-145.69;100.00;52464.19;5118174;28;20197;-81
2023/03/12 09:40:08;;;;;;;3.33;1.20;;;;;;;-145.69;100.00;52438.44;5118519;28;20193;-81
2023/03/12 09:42:41;;;;;;;3.00;1.27;;;;;;;-145.69;100.00;52450.31;5117659;28;20241;-81
2023/03/12 09:45:15;;;;;;;4.77;1.40;;;;;;;-145.69;100.00;52487.97;5118598;28;20749;-81
2023/03/12 09:47:47;;;;;;;6.90;1.93;;;;;;;-145.69;100.00;52489.94;5118153;28;20554;-81
2023/03/12 09:50:24;;;;;;;7.20;1.60;;;;;;;-145.69;100.00;52466.16;5117585;28;20220;-81
2023/03/12 09:52:56;;;;;;;8.10;1.33;;;;;;;-145.69;100.00;52476.06;5117541;28;20670;-81
2023/03/12 09:55:24;;;;;;;7.30;1.43;;;;;;;-145.69;100.00;52474.09;5117515;28;20201;-81
2023/03/12 09:57:51;;;;;;;2.43;1.30;;;;;;;-145.69;100.00;52444.38;5118100;28;20204;-81
2023/03/12 10:00:20;;;;;;;6.07;1.53;;;;;;;-145.69;100.00;52464.19;5117931;28;20189;-81
2023/03/12 10:03:10;;;;;;;5.80;1.30;;;;;;;-145.69;100.00;52499.84;5117836;28;20221;-81
2023/03/12 10:05:45;;;;;;;4.63;1.23;;;;;;;-145.69;100.00;52458.25;5118879;28;20197;-81
2023/03/12 10:08:21;;;;;;;3.13;1.13;;;;;;;-145.69;100.00;52452.31;5118025;28;20651;-81
2023/03/12 10:10:54;;;;;;;5.83;1.37;;;;;;;-145.69;100.00;52499.84;5117899;28;20197;-81
2023/03/12 10:13:47;;;;;;;5.67;1.00;;;;;;;-145.69;100.00;52472.13;5118616;28;20231;-81
2023/03/12 10:16:30;;;;;;;7.67;1.87;;;;;;;-145.69;100.00;52487.97;5117653;28;20220;-82
2023/03/12 10:19:12;;;;;;;2.50;1.20;;;;;;;-145.69;100.00;52489.94;5117542;28;20212;-81
2023/03/12 10:21:48;;;;;;;2.10;1.00;;;;;;;-145.69;100.00;52450.31;5097328;28;20226;-80
2023/03/12 10:24:27;;;;;;;9.17;2.73;;;;;;;-145.69;100.00;52474.09;5104649;28;20208;-83
2023/03/12 10:26:56;;;;;;;6.93;1.60;;;;;;;-145.69;100.00;52444.38;5118308;28;20682;-82
2023/03/12 10:29:28;;;;;;;7.57;1.53;;;;;;;-145.69;100.00;52424.59;5119958;28;20686;-82
2023/03/12 10:31:59;;;;;;;4.97;1.30;;;;;;;-145.69;100.00;52464.19;5117667;28;20212;-82
2023/03/12 10:34:31;;;;;;;9.80;1.37;;;;;;;-145.69;100.00;52450.31;5117142;28;20559;-82
2023/03/12 10:37:05;;;;;;;8.53;1.33;;;;;;;-145.69;100.00;52464.19;5117368;28;20204;-81
2023/03/12 10:39:31;;;;;;;5.77;1.10;;;;;;;-145.69;100.00;52456.28;5116682;28;20205;-81
2023/03/12 10:42:00;;;;;;;7.57;2.10;;;;;;;-145.69;100.00;52444.38;5117644;28;20243;-81
2023/03/12 10:44:28;;;;;;;6.27;1.30;;;;;;;-145.69;100.00;52476.06;5100241;28;20201;-81
2023/03/12 10:47:05;;;;;;;9.10;1.10;;;;;;;-145.69;100.00;52480.03;5117619;28;20197;-81
2023/03/12 10:49:35;;;;;;;5.77;1.40;;;;;;;-145.69;100.00;52458.25;5115867;28;20193;-80
2023/03/12 10:52:06;;;;;;;10.87;1.90;;;;;;;-145.69;100.00;52466.16;5115532;28;20202;-80
2023/03/12 10:54:35;;;;;;;9.20;2.40;;;;;;;-145.69;100.00;52450.31;5112677;28;20198;-80
2023/03/12 10:57:02;;;;;;;7.07;1.47;;;;;;;-145.69;100.00;52448.34;5116524;28;20198;-81
2023/03/12 10:59:31;;;;;;;6.93;1.30;;;;;;;-145.69;100.00;52452.31;5116916;28;20583;-82
2023/03/12 11:01:59;;;;;;;5.47;1.30;;;;;;;-145.69;100.00;52501.81;5116222;28;20687;-80
2023/03/12 11:04:28;;;;;;;5.47;1.50;;;;;;;-145.69;100.00;52460.22;5107675;28;20198;-80
2023/03/12 11:07:15;;;;;;;6.67;1.40;;;;;;;-145.69;100.00;52460.22;5111353;28;20209;-81
2023/03/12 11:09:42;;;;;;;3.60;1.40;;;;;;;-145.69;100.00;52487.97;5125371;27;20205;-81
2023/03/12 11:12:24;;;;;;;3.33;0.97;;;;;;;-145.69;100.00;52458.25;5136241;27;20207;-82